Time;durP1;ratioP1;P1;durP2;ratioP2;P2;SDS_P1;SDS_P2;PMS_P1;PMS_P2;Temp;Humidity;BMP_temperature;BMP_pressure;BME280_temperature;BME280_humidity;BME280_pressure;Samples;Min_cycle;Max_cycle;Signal;HPM_P1;HPM_P2
2023/12/15 00:01:55;;;;;;;7.43;4.53;;;7.70;99.90;;;7.94;83.27;101788.06;4875304;28;25019;-66
2023/12/15 00:04:17;;;;;;;6.97;4.32;;;7.70;99.90;;;7.91;83.61;101788.19;4875400;28;24439;-66
2023/12/15 00:06:39;;;;;;;7.78;4.30;;;7.70;99.90;;;7.92;83.47;101792.47;4867683;28;24462;-66
2023/12/15 00:09:01;;;;;;;8.68;4.40;;;7.70;99.90;;;7.86;83.33;101785.78;4874388;28;24873;-66
2023/12/15 00:11:23;;;;;;;6.35;4.70;;;7.70;99.90;;;7.82;83.23;101787.66;4875332;28;25001;-66
2023/12/15 00:13:45;;;;;;;8.80;4.87;;;7.60;99.90;;;7.75;83.37;101786.22;4872842;28;24824;-66
2023/12/15 00:16:08;;;;;;;6.50;4.60;;;7.60;99.90;;;7.72;83.38;101796.75;4875937;28;24531;-66
2023/12/15 00:18:29;;;;;;;7.80;4.80;;;7.50;99.90;;;7.70;83.33;101797.72;4876323;28;24608;-66
2023/12/15 00:20:51;;;;;;;8.85;4.47;;;7.50;99.90;;;7.68;83.94;101794.34;4873442;28;24443;-66
2023/12/15 00:23:14;;;;;;;7.13;4.63;;;7.40;99.90;;;7.63;83.86;101799.72;4877541;28;25038;-66
2023/12/15 00:25:36;;;;;;;7.45;4.63;;;7.40;99.90;;;7.58;84.25;101799.06;4873190;28;24419;-66
2023/12/15 00:27:58;;;;;;;6.40;4.53;;;7.40;99.90;;;7.56;84.71;101820.84;4868383;28;24437;-66
2023/12/15 00:30:19;;;;;;;8.63;5.13;;;7.40;99.90;;;7.52;85.32;101820.09;4874548;28;24459;-66
2023/12/15 00:32:41;;;;;;;9.20;5.00;;;7.30;99.90;;;7.48;85.72;101828.94;4871680;28;24434;-66
2023/12/15 00:35:06;;;;;;;11.13;4.90;;;7.30;99.90;;;7.45;84.66;101833.41;4871394;28;24502;-66
2023/12/15 00:37:28;;;;;;;8.13;4.80;;;7.30;99.90;;;7.43;85.34;101833.44;4872624;28;25062;-66
2023/12/15 00:39:50;;;;;;;8.68;5.30;;;7.20;99.90;;;7.44;85.42;101829.97;4873801;28;24485;-66
2023/12/15 00:42:12;;;;;;;7.60;4.88;;;7.20;99.90;;;7.42;84.28;101833.53;4872375;28;24785;-66
2023/12/15 00:44:34;;;;;;;7.93;5.10;;;7.20;99.90;;;7.42;83.83;101843.91;4872674;28;24638;-66
2023/12/15 00:46:56;;;;;;;7.32;4.90;;;7.20;99.90;;;7.37;84.03;101848.47;4875468;28;24489;-66
2023/12/15 00:49:18;;;;;;;7.45;4.88;;;7.20;99.90;;;7.32;84.68;101850.38;4874621;28;24439;-66
2023/12/15 00:51:40;;;;;;;7.30;4.50;;;7.10;99.90;;;7.28;84.89;101851.41;4874690;28;24438;-66
2023/12/15 00:54:02;;;;;;;7.30;4.55;;;7.10;99.90;;;7.24;84.18;101852.44;4867429;28;24534;-66
2023/12/15 00:56:23;;;;;;;7.25;4.72;;;7.00;99.90;;;7.19;84.51;101862.13;4871883;28;24878;-65
2023/12/15 00:58:45;;;;;;;8.30;4.83;;;7.00;99.90;;;7.14;85.77;101864.06;4875052;28;24950;-66
2023/12/15 01:01:07;;;;;;;7.75;4.30;;;6.90;99.90;;;7.12;85.85;101873.66;4876786;28;24437;-66
2023/12/15 01:03:31;;;;;;;7.43;4.53;;;6.90;99.90;;;7.12;85.56;101871.91;4859355;28;24447;-66
2023/12/15 01:05:53;;;;;;;7.22;4.43;;;6.90;99.90;;;7.11;85.35;101869.38;4874371;28;25134;-66
2023/12/15 01:08:15;;;;;;;7.22;4.55;;;6.90;99.90;;;7.09;85.86;101879.81;4873193;28;24537;-65
2023/12/15 01:10:37;;;;;;;7.00;4.35;;;6.90;99.90;;;7.12;85.24;101881.44;4867317;28;24426;-66
2023/12/15 01:12:59;;;;;;;6.50;4.25;;;6.90;99.90;;;7.12;85.00;101887.47;4870134;28;25046;-63
2023/12/15 01:15:20;;;;;;;6.30;3.90;;;6.90;99.90;;;7.12;85.41;101890.06;4871686;28;24446;-66
2023/12/15 01:17:42;;;;;;;5.85;4.05;;;6.90;99.90;;;7.11;85.32;101885.81;4874213;28;24774;-66
2023/12/15 01:20:05;;;;;;;7.40;4.35;;;6.90;99.90;;;7.13;84.77;101878.81;4872129;28;24447;-64
2023/12/15 01:22:27;;;;;;;7.78;4.70;;;6.90;99.90;;;7.18;85.18;101884.66;4874350;28;25047;-66
2023/12/15 01:24:49;;;;;;;6.77;4.10;;;6.90;99.90;;;7.23;84.09;101890.53;4871983;28;24446;-66
2023/12/15 01:27:11;;;;;;;6.93;4.40;;;7.00;99.90;;;7.26;84.42;101886.97;4874514;28;24515;-66
2023/12/15 01:29:33;;;;;;;8.77;4.72;;;7.00;99.90;;;7.30;83.57;101894.59;4873970;28;24482;-67
2023/12/15 01:31:55;;;;;;;6.57;4.40;;;7.00;99.90;;;7.34;83.24;101896.16;4873632;28;24518;-66
2023/12/15 01:34:17;;;;;;;7.05;4.60;;;7.00;99.90;;;7.37;83.84;101903.00;4871716;28;24443;-66
2023/12/15 01:36:39;;;;;;;6.00;4.30;;;7.00;99.90;;;7.37;83.32;101898.63;4872020;28;24446;-64
2023/12/15 01:39:01;;;;;;;6.45;4.43;;;7.10;99.90;;;7.38;83.59;101905.50;4883451;28;24435;-66
2023/12/15 01:41:23;;;;;;;6.38;4.50;;;7.10;99.90;;;7.40;83.16;101908.03;4874949;28;24474;-65
2023/12/15 01:43:45;;;;;;;6.65;4.43;;;7.10;99.90;;;7.38;83.60;101910.72;4875611;28;25062;-66
2023/12/15 01:46:07;;;;;;;6.60;4.40;;;7.10;99.90;;;7.39;83.57;101911.56;4871484;28;24975;-66
2023/12/15 01:48:36;;;;;;;5.20;4.00;;;7.10;99.90;;;7.39;84.01;101914.16;4873448;28;24523;-66
2023/12/15 01:50:58;;;;;;;5.57;4.03;;;7.10;99.90;;;7.39;84.21;101917.56;4871400;28;24493;-66
2023/12/15 01:53:20;;;;;;;6.65;4.30;;;7.10;99.90;;;7.36;83.38;101919.47;4868252;28;24546;-66
2023/12/15 01:55:43;;;;;;;6.95;4.40;;;7.10;99.90;;;7.37;84.79;101921.97;4868670;28;25022;-66
2023/12/15 01:58:05;;;;;;;7.15;4.22;;;7.10;99.90;;;7.36;84.22;101927.25;4873092;28;24519;-66
2023/12/15 02:00:27;;;;;;;8.07;4.60;;;7.10;99.90;;;7.34;83.84;101932.50;4859091;28;24455;-66
2023/12/15 02:02:49;;;;;;;6.07;4.10;;;7.00;99.90;;;7.37;84.32;101928.94;4870810;28;24919;-65
2023/12/15 02:05:10;;;;;;;6.70;4.00;;;7.10;99.90;;;7.35;84.80;101936.78;4875971;28;24451;-65
2023/12/15 02:07:32;;;;;;;8.65;4.90;;;7.10;99.90;;;7.35;84.87;101935.94;4871643;28;24439;-65
2023/12/15 02:09:55;;;;;;;5.50;3.83;;;7.10;99.90;;;7.35;85.36;101935.94;4873374;28;24485;-66
2023/12/15 02:12:17;;;;;;;6.18;4.25;;;7.10;99.90;;;7.36;84.83;101942.81;4871230;28;25039;-65
2023/12/15 02:14:43;;;;;;;6.28;4.07;;;7.10;99.90;;;7.34;85.51;101945.50;4875062;28;24964;-66
2023/12/15 02:17:05;;;;;;;6.05;4.00;;;7.10;99.90;;;7.37;85.60;101944.53;4875259;28;24481;-66
2023/12/15 02:19:27;;;;;;;8.57;4.60;;;7.10;99.90;;;7.36;85.30;101948.88;4882956;28;24443;-66
2023/12/15 02:21:48;;;;;;;7.50;4.07;;;7.10;99.90;;;7.36;85.08;101956.66;4869007;28;24486;-65
2023/12/15 02:24:10;;;;;;;6.72;4.20;;;7.10;99.90;;;7.37;85.17;101958.34;4874156;28;24442;-66
2023/12/15 02:26:32;;;;;;;6.80;4.50;;;7.10;99.90;;;7.36;85.79;101948.03;4873315;28;24428;-66
2023/12/15 02:28:54;;;;;;;6.40;4.50;;;7.10;99.90;;;7.35;85.66;101956.69;4873511;28;24431;-66
2023/12/15 02:31:20;;;;;;;7.10;4.50;;;7.10;99.90;;;7.35;85.36;101954.09;4872232;28;24447;-66
2023/12/15 02:33:42;;;;;;;7.40;4.70;;;7.10;99.90;;;7.36;85.81;101954.06;4873889;28;24430;-65
2023/12/15 02:36:04;;;;;;;6.63;4.40;;;7.10;99.90;;;7.32;85.62;101951.63;4871070;28;24520;-66
2023/12/15 02:38:26;;;;;;;7.47;4.45;;;7.10;99.90;;;7.30;85.97;101951.69;4868294;28;24486;-66
2023/12/15 02:40:48;;;;;;;6.75;4.57;;;7.00;99.90;;;7.26;85.31;101955.28;4872576;28;24427;-65
2023/12/15 02:43:13;;;;;;;7.40;4.70;;;7.00;99.90;;;7.22;85.91;101964.09;4874807;28;24882;-65
2023/12/15 02:45:37;;;;;;;7.45;4.70;;;7.00;99.90;;;7.18;85.62;101962.53;4873267;28;25066;-65
2023/12/15 02:47:59;;;;;;;7.90;4.80;;;6.90;99.90;;;7.10;86.45;101961.97;4877631;28;24506;-66
2023/12/15 02:50:21;;;;;;;8.70;4.70;;;6.90;99.90;;;7.11;86.27;101968.00;4874151;28;24454;-66
2023/12/15 02:52:43;;;;;;;7.00;4.30;;;6.90;99.90;;;7.12;85.77;101969.69;4870494;28;20894;-65
2023/12/15 02:55:05;;;;;;;8.18;5.00;;;6.90;99.90;;;7.14;85.95;101963.53;4878127;28;24522;-65
2023/12/15 02:57:27;;;;;;;7.82;4.78;;;6.90;99.90;;;7.11;86.39;101974.06;4868735;28;24798;-66
2023/12/15 02:59:49;;;;;;;8.38;4.60;;;6.90;99.90;;;7.11;85.56;101978.38;4874592;28;24458;-66
2023/12/15 03:02:11;;;;;;;7.38;4.80;;;6.90;99.90;;;7.08;86.66;101974.16;4877055;28;25032;-66
2023/12/15 03:04:33;;;;;;;8.73;4.80;;;6.90;99.90;;;7.07;85.70;101972.44;4870523;28;24462;-66
2023/12/15 03:06:55;;;;;;;8.65;4.82;;;6.90;99.90;;;7.05;86.05;101982.03;4872647;28;24423;-66
2023/12/15 03:09:17;;;;;;;6.55;4.40;;;6.80;99.90;;;7.03;86.47;101981.25;4876259;28;24876;-66
2023/12/15 03:11:39;;;;;;;6.50;4.60;;;6.80;99.90;;;7.02;86.43;101974.38;4875870;28;24539;-64
2023/12/15 03:14:01;;;;;;;8.07;4.97;;;6.80;99.90;;;7.02;86.38;101982.16;4875377;28;24490;-64
2023/12/15 03:16:26;;;;;;;7.28;4.80;;;6.80;99.90;;;7.01;86.62;101983.06;4876800;28;24435;-64
2023/12/15 03:18:48;;;;;;;7.68;4.57;;;6.80;99.90;;;7.01;87.37;101983.91;4877201;28;24534;-66
2023/12/15 03:21:10;;;;;;;6.70;4.30;;;6.80;99.90;;;7.02;86.45;101987.34;4876106;28;24798;-64
2023/12/15 03:23:32;;;;;;;6.73;4.70;;;6.80;99.90;;;7.05;86.29;101987.22;4866108;28;24845;-64
2023/12/15 03:25:54;;;;;;;7.50;4.60;;;6.80;99.90;;;7.09;86.49;101994.03;4871759;28;24458;-65
2023/12/15 03:28:16;;;;;;;7.38;4.57;;;6.80;99.90;;;7.07;87.13;101999.25;4873612;28;24446;-63
2023/12/15 03:30:38;;;;;;;7.65;4.40;;;6.80;99.90;;;7.08;85.89;101997.50;4864224;28;24434;-64
2023/12/15 03:33:00;;;;;;;6.10;4.55;;;6.80;99.90;;;7.05;86.73;101995.88;4876203;28;24522;-66
2023/12/15 03:35:22;;;;;;;6.60;4.37;;;6.80;99.90;;;7.01;85.97;101998.63;4875690;28;24465;-65
2023/12/15 03:37:45;;;;;;;6.78;4.40;;;6.80;99.90;;;6.95;87.42;101991.91;4876224;28;24526;-66
2023/12/15 03:40:07;;;;;;;7.65;4.60;;;6.70;99.90;;;6.88;87.49;101995.63;4875667;28;25015;-65
2023/12/15 03:42:29;;;;;;;5.78;4.20;;;6.70;99.90;;;6.82;87.50;101988.06;4874527;28;24459;-64
2023/12/15 03:44:51;;;;;;;7.20;4.70;;;6.70;99.90;;;6.74;87.74;101990.06;4876428;28;24533;-64
2023/12/15 03:47:13;;;;;;;5.38;4.25;;;6.60;99.90;;;6.68;87.33;101998.06;4877224;28;24439;-64
2023/12/15 03:49:35;;;;;;;8.27;4.45;;;6.50;99.90;;;6.57;88.23;102000.19;4877294;28;24427;-64
2023/12/15 03:51:57;;;;;;;6.18;4.18;;;6.40;99.90;;;6.50;88.27;101997.81;4870420;28;24439;-64
2023/12/15 03:54:19;;;;;;;6.70;4.10;;;6.40;99.90;;;6.45;87.81;102002.34;4876295;28;24527;-64
2023/12/15 03:56:41;;;;;;;7.40;4.50;;;6.30;99.90;;;6.43;89.00;102009.31;4872416;28;24959;-64
2023/12/15 03:59:03;;;;;;;6.30;4.65;;;6.20;99.90;;;6.41;88.13;102011.13;4876315;28;24969;-64
2023/12/15 04:01:25;;;;;;;6.60;4.57;;;6.20;99.90;;;6.38;89.25;102013.78;4873922;28;24526;-64
2023/12/15 04:03:47;;;;;;;6.80;4.20;;;6.20;99.90;;;6.35;88.43;102025.09;4876519;28;24459;-66
2023/12/15 04:06:09;;;;;;;6.53;4.40;;;6.20;99.90;;;6.34;89.67;102028.63;4872634;28;24562;-64
2023/12/15 04:08:31;;;;;;;7.13;4.60;;;6.10;99.90;;;6.32;89.06;102033.00;4869753;28;24427;-67
2023/12/15 04:10:53;;;;;;;5.75;4.20;;;6.10;99.90;;;6.33;89.04;102033.81;4870528;28;25079;-64
2023/12/15 04:13:15;;;;;;;6.13;4.30;;;6.10;99.90;;;6.31;88.66;102043.41;4883757;28;24423;-64
2023/12/15 04:15:38;;;;;;;6.72;4.40;;;6.10;99.90;;;6.28;89.58;102038.31;4873307;28;24447;-64
2023/12/15 04:18:04;;;;;;;5.80;4.10;;;6.10;99.90;;;6.25;89.51;102034.94;4877477;28;24514;-65
2023/12/15 04:20:27;;;;;;;6.57;4.60;;;6.10;99.90;;;6.24;90.04;102040.16;4874719;28;24889;-65
2023/12/15 04:22:49;;;;;;;7.55;4.60;;;6.00;99.90;;;6.21;89.12;102035.06;4873764;28;24564;-65
2023/12/15 04:25:11;;;;;;;5.68;4.15;;;6.00;99.90;;;6.13;89.42;102040.50;4874958;28;24430;-65
2023/12/15 04:27:33;;;;;;;5.88;4.25;;;5.90;99.90;;;6.12;89.28;102046.59;4875593;28;25070;-64
2023/12/15 04:29:58;;;;;;;6.17;4.40;;;5.90;99.90;;;6.06;89.24;102051.09;4878173;28;20854;-65
2023/12/15 04:32:20;;;;;;;8.65;4.60;;;5.90;99.90;;;6.05;90.27;102046.81;4873557;28;24450;-65
2023/12/15 04:34:42;;;;;;;6.50;4.47;;;5.90;99.90;;;6.05;89.51;102057.16;4875963;28;24431;-65
2023/12/15 04:37:04;;;;;;;7.07;4.47;;;5.80;99.90;;;6.03;89.85;102054.63;4867255;28;24476;-65
2023/12/15 04:39:26;;;;;;;7.05;4.80;;;5.80;99.90;;;6.07;89.92;102057.97;4875823;28;25094;-65
2023/12/15 04:41:48;;;;;;;8.80;4.72;;;5.80;99.90;;;6.10;89.95;102063.06;4874087;28;24518;-65
2023/12/15 04:44:10;;;;;;;6.47;4.40;;;5.90;99.90;;;6.12;89.80;102066.47;4871663;28;24451;-63
2023/12/15 04:46:32;;;;;;;5.60;4.13;;;5.90;99.90;;;6.12;89.42;102066.47;4874893;28;24423;-65
2023/12/15 04:48:56;;;;;;;6.47;4.28;;;5.90;99.90;;;6.08;89.60;102064.88;4874296;28;24850;-65
2023/12/15 04:51:18;;;;;;;8.18;5.00;;;5.90;99.90;;;6.06;90.58;102064.91;4853537;28;24454;-66
2023/12/15 04:53:40;;;;;;;6.45;4.70;;;5.90;99.90;;;6.02;90.77;102070.25;4874749;28;24524;-65
2023/12/15 04:56:02;;;;;;;6.57;4.40;;;5.80;99.90;;;6.06;91.48;102077.03;4874663;28;24468;-65
2023/12/15 04:58:24;;;;;;;6.78;4.70;;;5.80;99.90;;;6.08;91.41;102076.09;4875471;28;24497;-66
2023/12/15 05:00:46;;;;;;;7.07;4.32;;;5.90;99.90;;;6.11;91.19;102081.16;4872803;28;24486;-65
2023/12/15 05:03:08;;;;;;;6.97;4.10;;;5.90;99.90;;;6.13;91.03;102081.94;4876603;28;24455;-66
2023/12/15 05:05:30;;;;;;;7.35;3.80;;;5.90;99.90;;;6.22;90.49;102089.47;4872387;28;24512;-65
2023/12/15 05:07:52;;;;;;;6.35;4.30;;;6.00;99.90;;;6.28;90.60;102092.75;4875419;28;20762;-65
2023/12/15 05:10:14;;;;;;;7.15;4.40;;;6.00;99.90;;;6.31;89.94;102097.84;4873471;28;24510;-65
2023/12/15 05:12:37;;;;;;;7.68;4.60;;;6.10;99.90;;;6.39;90.30;102101.06;4869209;28;24447;-65
2023/12/15 05:14:59;;;;;;;6.80;4.30;;;6.10;99.90;;;6.43;89.62;102100.06;4858814;28;24526;-65
2023/12/15 05:17:22;;;;;;;7.03;4.43;;;6.20;99.90;;;6.44;90.19;102104.34;4871447;28;24478;-65
2023/12/15 05:19:47;;;;;;;6.75;4.45;;;6.20;99.90;;;6.48;90.09;102108.53;4874581;28;25058;-65
2023/12/15 05:22:09;;;;;;;5.40;4.00;;;6.20;99.90;;;6.50;89.71;102106.72;4872240;28;24438;-64
2023/12/15 05:24:34;;;;;;;5.30;4.20;;;6.30;99.90;;;6.46;89.67;102110.31;4866140;28;24423;-65
2023/12/15 05:26:56;;;;;;;7.78;4.60;;;6.30;99.90;;;6.37;89.64;102119.22;4877797;28;24430;-65
2023/12/15 05:29:18;;;;;;;5.00;4.03;;;6.20;99.90;;;6.38;90.36;102120.09;4861244;28;24575;-65
2023/12/15 05:31:44;;;;;;;9.43;5.10;;;6.20;99.90;;;6.38;90.39;102125.28;4872686;28;24458;-65
2023/12/15 05:34:06;;;;;;;6.18;4.07;;;6.20;99.90;;;6.37;89.20;102134.78;4872903;28;25044;-66
2023/12/15 05:36:28;;;;;;;6.07;4.40;;;6.20;99.90;;;6.35;89.35;102141.75;4873268;28;24525;-65
2023/12/15 05:38:52;;;;;;;5.50;4.20;;;6.20;99.90;;;6.41;89.68;102153.72;4873875;28;24442;-64
2023/12/15 05:41:14;;;;;;;7.78;4.55;;;6.20;99.90;;;6.46;90.53;102154.41;4871362;28;24561;-65
2023/12/15 05:43:36;;;;;;;6.85;4.63;;;6.20;99.90;;;6.52;89.21;102161.97;4874227;28;24522;-65
2023/12/15 05:45:58;;;;;;;6.10;4.53;;;6.20;99.90;;;6.54;89.26;102163.63;4872944;28;24539;-65
2023/12/15 05:48:20;;;;;;;6.95;4.65;;;6.30;99.90;;;6.59;89.11;102168.69;4875025;28;24427;-65
2023/12/15 05:50:42;;;;;;;6.28;4.30;;;6.30;99.90;;;6.61;89.83;102179.88;4873305;28;24432;-65
2023/12/15 05:53:04;;;;;;;5.60;4.20;;;6.40;99.90;;;6.64;89.67;102182.38;4864567;28;24455;-65
2023/12/15 05:55:26;;;;;;;6.30;4.57;;;6.40;99.90;;;6.67;88.83;102190.03;4864461;28;24442;-65
2023/12/15 05:57:48;;;;;;;7.72;4.57;;;6.40;99.90;;;6.68;88.91;102191.75;4875305;28;25259;-65
2023/12/15 06:00:11;;;;;;;7.30;4.40;;;6.40;99.90;;;6.74;90.09;102195.00;4864583;28;24502;-65
2023/12/15 06:02:33;;;;;;;6.90;4.70;;;6.50;99.90;;;6.80;88.77;102194.81;4871722;28;24479;-65
2023/12/15 06:04:55;;;;;;;8.10;4.50;;;6.50;99.90;;;6.84;88.71;102195.56;4868701;28;24443;-66
2023/12/15 06:07:17;;;;;;;6.93;4.40;;;6.50;99.90;;;6.86;88.74;102198.94;4864675;28;25056;-65
2023/12/15 06:09:39;;;;;;;9.05;4.65;;;6.60;99.90;;;6.87;89.24;102185.09;4877632;28;24518;-65
2023/12/15 06:12:00;;;;;;;6.50;4.68;;;6.60;99.90;;;6.82;89.28;102195.59;4867127;28;24467;-67
2023/12/15 06:14:23;;;;;;;5.78;4.40;;;6.60;99.90;;;6.78;88.89;102190.56;4867842;28;21212;-66
2023/12/15 06:16:45;;;;;;;8.20;5.00;;;6.60;99.90;;;6.73;89.41;102195.88;4861433;28;24550;-64
2023/12/15 06:19:07;;;;;;;5.45;4.57;;;6.50;99.90;;;6.70;89.30;102200.34;4872506;28;24526;-66
2023/12/15 06:21:29;;;;;;;6.40;4.40;;;6.50;99.90;;;6.64;90.16;102195.34;4877037;28;24847;-64
2023/12/15 06:23:53;;;;;;;5.82;4.50;;;6.50;99.90;;;6.58;89.80;102200.72;4867129;28;24532;-64
2023/12/15 06:26:24;;;;;;;6.63;4.30;;;6.40;99.90;;;6.50;90.04;102202.69;4877323;28;24424;-66
2023/12/15 06:28:46;;;;;;;6.80;4.38;;;6.40;99.90;;;6.48;90.62;102205.31;4877600;28;24466;-66
2023/12/15 06:31:08;;;;;;;5.63;4.35;;;6.30;99.90;;;6.43;90.84;102214.16;4871289;28;24432;-68
2023/12/15 06:33:30;;;;;;;6.90;4.40;;;6.30;99.90;;;6.38;91.35;102213.44;4875486;28;24447;-66
2023/12/15 06:35:52;;;;;;;7.10;4.63;;;6.20;99.90;;;6.34;91.49;102214.41;4877995;28;20767;-66
2023/12/15 06:38:14;;;;;;;7.40;5.00;;;6.20;99.90;;;6.28;92.69;102209.41;4865572;28;24506;-65
2023/12/15 06:40:36;;;;;;;9.27;5.17;;;6.10;99.90;;;6.20;92.51;102218.25;4874123;28;24443;-66
2023/12/15 06:42:58;;;;;;;6.78;4.40;;;6.10;99.90;;;6.21;93.37;102225.16;4875908;28;24525;-66
2023/12/15 06:45:20;;;;;;;7.07;5.05;;;6.00;99.90;;;6.18;93.24;102220.03;4874671;28;20787;-66
2023/12/15 06:47:42;;;;;;;7.57;5.10;;;6.00;99.90;;;6.22;93.86;102221.66;4880925;28;24945;-66
2023/12/15 06:50:08;;;;;;;8.57;5.27;;;6.00;99.90;;;6.21;93.13;102219.97;4875345;28;24427;-66
2023/12/15 06:52:30;;;;;;;8.85;5.93;;;6.00;99.90;;;6.25;93.38;102226.75;4860172;28;24901;-66
2023/12/15 06:54:52;;;;;;;12.63;7.90;;;6.00;99.90;;;6.26;93.71;102230.22;4866136;28;24571;-66
2023/12/15 06:57:14;;;;;;;13.90;9.10;;;6.10;99.90;;;6.25;93.89;102231.94;4870084;28;24466;-66
2023/12/15 06:59:36;;;;;;;15.50;9.07;;;6.10;99.90;;;6.28;94.34;102229.25;4876502;28;24435;-66
2023/12/15 07:01:58;;;;;;;15.73;9.50;;;6.10;99.90;;;6.32;94.56;102224.84;4863612;28;24539;-65
2023/12/15 07:04:20;;;;;;;17.70;9.88;;;6.10;99.90;;;6.35;93.60;102237.69;4874998;28;24455;-66
2023/12/15 07:06:42;;;;;;;16.52;10.55;;;6.10;99.90;;;6.40;94.56;102232.38;4871609;28;24501;-66
2023/12/15 07:09:04;;;;;;;20.33;11.07;;;6.10;99.90;;;6.40;93.78;102242.75;4870781;28;25029;-66
2023/12/15 07:11:26;;;;;;;18.92;11.45;;;6.20;99.90;;;6.40;93.84;102242.75;4876871;28;24537;-66
2023/12/15 07:13:48;;;;;;;19.73;12.00;;;6.20;99.90;;;6.43;94.27;102242.66;4868644;28;25306;-66
2023/12/15 07:16:10;;;;;;;17.75;11.07;;;6.20;99.90;;;6.46;94.21;102252.94;4875857;28;24806;-66
2023/12/15 07:18:33;;;;;;;18.30;11.30;;;6.20;99.90;;;6.50;93.89;102244.16;4874967;28;24497;-66
2023/12/15 07:20:55;;;;;;;20.17;11.40;;;6.30;99.90;;;6.41;93.95;102244.47;4874082;28;24516;-66
2023/12/15 07:23:17;;;;;;;20.80;12.48;;;6.30;99.90;;;6.46;93.33;102250.34;4876283;28;25037;-66
2023/12/15 07:25:39;;;;;;;18.40;11.43;;;6.30;99.90;;;6.50;93.28;102252.81;4876325;28;24451;-66
2023/12/15 07:28:01;;;;;;;21.08;11.20;;;6.30;99.90;;;6.47;93.25;102259.84;4873697;28;24504;-65
2023/12/15 07:30:22;;;;;;;16.95;10.40;;;6.30;99.90;;;6.45;94.22;102259.88;4876565;28;24427;-66
2023/12/15 07:32:44;;;;;;;16.63;9.85;;;6.30;99.90;;;6.52;94.25;102265.72;4875176;28;24485;-66
2023/12/15 07:35:07;;;;;;;14.60;8.85;;;6.30;99.90;;;6.58;94.17;102271.56;4877544;28;24532;-66
2023/12/15 07:37:45;;;;;;;13.82;8.30;;;6.30;99.90;;;6.62;93.08;102280.97;4873101;28;24502;-66
2023/12/15 07:40:08;;;;;;;12.13;7.43;;;6.40;99.90;;;6.70;93.64;102280.75;4875764;28;24447;-66
2023/12/15 07:42:31;;;;;;;11.20;6.80;;;6.40;99.90;;;6.74;92.61;102279.75;4868042;28;24428;-66
2023/12/15 07:44:55;;;;;;;12.07;6.90;;;6.50;99.90;;;6.81;93.38;102287.34;4874726;28;24451;-66
2023/12/15 07:47:17;;;;;;;11.25;6.45;;;6.50;99.90;;;6.83;92.95;102287.28;4866937;28;24489;-66
2023/12/15 07:49:39;;;;;;;10.95;6.10;;;6.60;99.90;;;6.90;91.86;102296.56;4876241;28;24523;-66
2023/12/15 07:52:01;;;;;;;9.13;6.20;;;6.60;99.90;;;6.93;92.37;102293.88;4871442;28;24450;-66
2023/12/15 07:54:23;;;;;;;11.13;6.32;;;6.70;99.90;;;6.81;92.85;102294.25;4874205;28;24443;-66
2023/12/15 07:56:45;;;;;;;12.07;6.38;;;6.60;99.90;;;6.85;91.69;102290.66;4875787;28;25245;-66
2023/12/15 07:59:08;;;;;;;11.73;5.70;;;6.60;99.90;;;6.82;92.50;102299.41;4875644;28;24492;-66
2023/12/15 08:01:29;;;;;;;9.70;5.97;;;6.60;99.90;;;6.88;92.33;102309.59;4869718;28;24876;-65
2023/12/15 08:03:52;;;;;;;11.75;5.43;;;6.60;99.90;;;6.92;92.02;102311.19;4875915;28;20793;-65
2023/12/15 08:06:16;;;;;;;9.38;5.60;;;6.60;99.90;;;6.94;91.40;102305.97;4873417;28;24439;-65
2023/12/15 08:08:39;;;;;;;8.05;5.05;;;6.70;99.90;;;6.87;92.09;102307.91;4877328;28;24987;-65
2023/12/15 08:11:01;;;;;;;8.98;5.40;;;6.70;99.90;;;6.89;92.56;102313.03;4875054;28;24429;-65
2023/12/15 08:13:24;;;;;;;10.27;5.95;;;6.70;99.90;;;6.96;92.75;102324.94;4867216;28;24450;-65
2023/12/15 08:15:47;;;;;;;9.47;6.07;;;6.70;99.90;;;7.03;91.89;102319.50;4869347;28;24476;-65
2023/12/15 08:18:09;;;;;;;11.45;5.95;;;6.80;99.90;;;7.14;91.17;102324.34;4872892;28;24462;-65
2023/12/15 08:20:31;;;;;;;10.25;6.20;;;6.90;99.90;;;7.18;90.69;102323.38;4869858;28;24449;-65
2023/12/15 08:22:54;;;;;;;10.27;6.00;;;6.90;99.90;;;7.14;91.09;102319.16;4879753;28;24442;-65
2023/12/15 08:25:16;;;;;;;10.80;5.95;;;6.90;99.90;;;7.13;90.59;102325.28;4874835;28;24534;-65
2023/12/15 08:27:40;;;;;;;9.40;6.20;;;6.90;99.90;;;7.14;91.31;102326.09;4873659;28;24466;-66
2023/12/15 08:30:02;;;;;;;12.07;6.50;;;6.90;99.90;;;7.14;91.47;102332.16;4863915;28;24680;-65
2023/12/15 08:32:24;;;;;;;9.82;6.28;;;6.90;99.90;;;7.13;91.76;102332.19;4874646;28;24430;-66
2023/12/15 08:34:47;;;;;;;9.63;5.70;;;6.90;99.90;;;7.17;90.68;102326.88;4880674;28;20834;-66
2023/12/15 08:37:09;;;;;;;9.40;5.50;;;7.00;99.90;;;7.17;91.11;102326.88;4876578;28;24438;-67
2023/12/15 08:39:30;;;;;;;10.98;5.70;;;7.00;99.90;;;7.24;91.58;102337.91;4868089;28;24984;-67
2023/12/15 08:41:52;;;;;;;11.00;6.30;;;7.00;99.90;;;7.36;90.87;102343.56;4878666;28;24527;-70
2023/12/15 08:44:14;;;;;;;13.07;7.00;;;7.10;99.90;;;7.60;90.40;102349.75;4865931;28;24891;-68
2023/12/15 08:46:50;;;;;;;14.02;7.28;;;7.20;99.90;;;7.86;89.74;102360.09;4876649;28;24983;-66
2023/12/15 08:49:12;;;;;;;13.00;7.53;;;7.40;99.90;;;8.18;89.00;102366.81;4876038;28;24429;-67
2023/12/15 08:51:34;;;;;;;13.05;7.55;;;7.60;99.90;;;8.69;87.83;102371.97;4873694;28;24478;-65
2023/12/15 08:53:56;;;;;;;15.18;7.78;;;7.90;99.90;;;9.39;84.51;102364.00;4878432;28;24818;-66
2023/12/15 08:56:18;;;;;;;14.73;7.40;;;8.50;99.90;;;9.79;81.29;102365.84;4876897;28;24433;-67
2023/12/15 08:58:40;;;;;;;13.18;6.95;;;9.00;99.90;;;9.76;80.15;102371.19;4876149;28;24442;-68
2023/12/15 09:01:02;;;;;;;11.63;6.72;;;9.10;99.90;;;9.52;79.93;102379.97;4881929;28;24437;-69
2023/12/15 09:03:24;;;;;;;10.90;6.40;;;9.10;99.90;;;9.27;81.67;102377.50;4875889;28;24446;-67
2023/12/15 09:05:46;;;;;;;9.38;6.22;;;8.90;99.90;;;9.11;82.50;102378.16;4876468;28;24526;-67
2023/12/15 09:08:28;;;;;;;12.95;7.57;;;8.80;99.90;;;9.02;83.43;102387.19;4876184;28;24427;-68
2023/12/15 09:10:51;;;;;;;14.00;7.60;;;8.70;99.90;;;8.95;83.79;102383.09;4882273;28;24459;-67
2023/12/15 09:13:13;;;;;;;14.07;7.30;;;8.60;99.90;;;8.97;84.23;102396.91;4874642;28;24534;-68
2023/12/15 09:15:35;;;;;;;15.05;7.70;;;8.60;99.90;;;8.97;84.49;102399.50;4856039;28;24459;-66
2023/12/15 09:17:57;;;;;;;14.80;7.75;;;8.60;99.90;;;8.99;83.88;102395.09;4874365;28;24526;-68
2023/12/15 09:20:19;;;;;;;13.93;7.00;;;8.60;99.90;;;9.01;83.93;102402.84;4873182;28;24445;-68
2023/12/15 09:22:41;;;;;;;14.25;7.28;;;8.60;99.90;;;9.05;84.47;102404.44;4868345;28;24428;-67
2023/12/15 09:25:04;;;;;;;13.57;6.97;;;8.60;99.90;;;9.06;83.92;102396.56;4857044;28;25136;-69
2023/12/15 09:27:26;;;;;;;11.30;6.85;;;8.70;99.90;;;9.06;84.18;102411.34;4872334;28;24481;-68
2023/12/15 09:29:47;;;;;;;11.10;7.00;;;8.70;99.90;;;9.04;83.84;102411.41;4864336;28;24427;-68
2023/12/15 09:32:09;;;;;;;13.10;7.40;;;8.70;99.90;;;9.02;83.98;102414.97;4873869;28;24547;-69
2023/12/15 09:34:31;;;;;;;11.10;6.70;;;8.60;99.90;;;9.03;84.23;102420.09;4866695;28;25033;-66
2023/12/15 09:36:53;;;;;;;11.07;6.57;;;8.70;99.90;;;9.11;84.61;102420.69;4857043;28;24490;-67
2023/12/15 09:39:15;;;;;;;12.23;6.75;;;8.70;99.90;;;9.22;84.02;102426.31;4875514;28;24445;-67
2023/12/15 09:41:37;;;;;;;10.82;6.50;;;8.80;99.90;;;9.25;83.67;102415.78;4879572;28;24481;-66
2023/12/15 09:43:59;;;;;;;10.32;6.40;;;8.80;99.90;;;9.25;83.89;102435.78;4866245;28;25058;-67
2023/12/15 09:46:22;;;;;;;10.95;6.78;;;8.90;99.90;;;9.33;84.18;102439.78;4873930;28;24475;-65
2023/12/15 09:48:44;;;;;;;11.75;6.88;;;8.90;99.90;;;9.39;84.36;102447.38;4874619;28;24976;-68
2023/12/15 09:51:25;;;;;;;11.55;6.63;;;8.90;99.90;;;9.43;84.59;102442.91;4862444;28;24505;-66
2023/12/15 09:53:48;;;;;;;11.27;6.00;;;9.00;99.90;;;9.42;84.06;102441.19;4862930;28;25167;-65
2023/12/15 09:56:10;;;;;;;10.68;6.40;;;9.00;99.90;;;9.05;85.71;102451.31;4871515;28;24897;-65
2023/12/15 09:58:32;;;;;;;11.35;6.80;;;8.90;99.90;;;9.09;85.81;102448.50;4849812;28;25013;-65
2023/12/15 10:00:54;;;;;;;8.80;5.50;;;8.80;99.90;;;9.04;86.46;102453.06;4870999;28;24450;-68
2023/12/15 10:03:16;;;;;;;10.95;5.32;;;8.70;99.90;;;9.01;86.08;102447.97;4854241;28;24509;-66